createdAt,value
2023-05-15T00:00:23.211Z,79.87
2023-05-15T00:02:53.431Z,79.36
2023-05-15T00:05:23.177Z,79.37
2023-05-15T00:07:53.457Z,79.11
2023-05-15T00:10:23.035Z,79.11
2023-05-15T00:12:53.135Z,79.91
2023-05-15T00:15:23.167Z,80.57
2023-05-15T00:17:53.591Z,80.57
2023-05-15T00:20:23.885Z,80.73
2023-05-15T00:22:54.073Z,80.91
2023-05-15T00:25:24.096Z,81.14
2023-05-15T00:27:53.710Z,81.20
2023-05-15T00:30:24.539Z,80.77
2023-05-15T00:32:54.725Z,80.37
2023-05-15T00:35:25.142Z,80.21
2023-05-15T00:37:54.875Z,80.21
2023-05-15T00:40:26.715Z,80.82
2023-05-15T00:42:57.561Z,80.61
2023-05-15T00:45:29.500Z,80.72
2023-05-15T00:48:01.687Z,80.17
2023-05-15T00:50:32.878Z,81.12
2023-05-15T00:53:04.331Z,80.73
2023-05-15T00:55:35.359Z,81.45
2023-05-15T00:58:05.936Z,83.52
2023-05-15T01:00:36.409Z,84.96
2023-05-15T01:03:07.208Z,84.39
2023-05-15T01:05:37.436Z,83.36
2023-05-15T01:08:26.717Z,83.29
2023-05-15T01:10:58.347Z,83.63
2023-05-15T01:13:28.469Z,84.51
2023-05-15T01:15:59.303Z,84.21
2023-05-15T01:18:31.076Z,83.45
2023-05-15T01:21:18.454Z,84.37
2023-05-15T01:24:03.451Z,84.78
2023-05-15T01:26:45.333Z,86.35
2023-05-15T01:29:27.297Z,86.28
2023-05-15T01:32:00.516Z,86.26
2023-05-15T01:34:34.111Z,85.64
2023-05-15T01:37:04.914Z,84.73
2023-05-15T01:39:36.834Z,85.68
2023-05-15T01:42:09.801Z,87.53
2023-05-15T01:44:46.262Z,86.12
2023-05-15T01:47:18.477Z,85.93
2023-05-15T01:49:51.782Z,85.26
2023-05-15T01:52:39.808Z,85.26
2023-05-15T01:55:10.594Z,84.92
2023-05-15T01:57:43.276Z,84.86
2023-05-15T02:00:18.782Z,86.02
2023-05-15T02:02:49.781Z,84.95
2023-05-15T02:05:20.839Z,84.45
2023-05-15T02:07:51.522Z,84.25
2023-05-15T02:10:23.029Z,84.04
2023-05-15T02:12:55.999Z,84.81
2023-05-15T02:15:26.050Z,84.58
2023-05-15T02:17:56.731Z,84.69
2023-05-15T02:20:26.652Z,84.69
2023-05-15T02:22:56.782Z,85.80
2023-05-15T02:25:32.207Z,86.15
2023-05-15T02:28:04.576Z,85.28
2023-05-15T02:30:46.146Z,85.28
2023-05-15T02:33:22.231Z,85.38
2023-05-15T02:35:58.956Z,85.20
2023-05-15T02:38:32.068Z,85.44
2023-05-15T02:41:03.287Z,85.54
2023-05-15T02:43:37.371Z,86.88
2023-05-15T02:46:08.879Z,86.90
2023-05-15T02:48:44.092Z,88.83
2023-05-15T02:51:15.387Z,89.72
2023-05-15T02:53:45.311Z,90.02
2023-05-15T02:56:17.382Z,90.38
2023-05-15T02:58:47.377Z,91.67
2023-05-15T03:01:17.557Z,92.72
2023-05-15T03:03:49.385Z,91.45
2023-05-15T03:06:19.244Z,92.42
2023-05-15T03:08:49.359Z,92.31
2023-05-15T03:11:21.306Z,93.06
2023-05-15T03:13:51.570Z,92.68
2023-05-15T03:16:21.884Z,93.12
2023-05-15T03:18:51.776Z,93.51
2023-05-15T03:21:21.682Z,91.33
2023-05-15T03:23:51.865Z,91.33
2023-05-15T03:26:21.757Z,90.73
2023-05-15T03:28:51.586Z,90.50
2023-05-15T03:31:21.519Z,90.44
2023-05-15T03:33:51.571Z,91.25
2023-05-15T03:36:22.487Z,91.73
2023-05-15T03:38:52.330Z,89.40
2023-05-15T03:41:22.775Z,88.56
2023-05-15T03:43:52.873Z,89.95
2023-05-15T03:46:22.810Z,88.90
2023-05-15T03:48:54.537Z,90.29
2023-05-15T03:51:24.439Z,89.07
2023-05-15T03:53:56.121Z,87.89
2023-05-15T03:56:26.066Z,88.15
2023-05-15T03:58:56.259Z,88.63
2023-05-15T04:01:26.555Z,88.48
2023-05-15T04:03:56.619Z,87.32
2023-05-15T04:06:26.114Z,86.12
2023-05-15T04:08:55.952Z,85.72
2023-05-15T04:11:26.785Z,85.81
2023-05-15T04:13:56.972Z,85.05
2023-05-15T04:16:26.928Z,85.05
2023-05-15T04:18:57.127Z,85.34
2023-05-15T04:21:26.907Z,85.34
2023-05-15T04:23:57.011Z,85.27
2023-05-15T04:26:26.853Z,85.27
2023-05-15T04:29:03.939Z,85.22
2023-05-15T04:31:28.723Z,85.15
2023-05-15T04:33:58.553Z,84.62
2023-05-15T04:36:28.526Z,85.22
2023-05-15T04:38:58.639Z,85.57
2023-05-15T04:41:28.478Z,85.73
2023-05-15T04:43:58.580Z,87.82
2023-05-15T04:46:29.261Z,87.82
2023-05-15T04:48:59.223Z,88.45
2023-05-15T04:51:29.204Z,89.70
2023-05-15T04:53:59.040Z,90.59
2023-05-15T04:56:28.876Z,89.86
2023-05-15T04:58:58.728Z,90.72
2023-05-15T05:01:28.945Z,90.76
2023-05-15T05:03:58.869Z,90.92
2023-05-15T05:06:30.451Z,88.19
2023-05-15T05:09:00.578Z,87.65
2023-05-15T05:11:30.892Z,87.40
2023-05-15T05:14:00.772Z,86.79
2023-05-15T05:16:30.644Z,85.15
2023-05-15T05:19:00.796Z,85.13
2023-05-15T05:21:31.305Z,84.48
2023-05-15T05:24:01.781Z,84.50
2023-05-15T05:26:31.530Z,84.51
2023-05-15T05:29:01.630Z,83.69
2023-05-15T05:31:31.841Z,83.77
2023-05-15T05:34:02.042Z,84.09
2023-05-15T05:36:31.902Z,84.89
2023-05-15T05:39:02.088Z,84.57
2023-05-15T05:41:32.265Z,83.92
2023-05-15T05:44:02.373Z,83.04
2023-05-15T05:46:32.127Z,82.53
2023-05-15T05:49:02.345Z,81.29
2023-05-15T05:51:32.693Z,81.08
2023-05-15T05:54:02.812Z,81.15
2023-05-15T05:56:32.678Z,79.30
2023-05-15T05:59:02.934Z,79.86
2023-05-15T06:01:33.030Z,78.18
2023-05-15T06:04:03.221Z,76.80
2023-05-15T06:06:33.393Z,76.93
2023-05-15T06:09:04.158Z,76.09
2023-05-15T06:11:34.450Z,76.09
2023-05-15T06:14:04.622Z,75.90
2023-05-15T06:16:34.472Z,76.08
2023-05-15T06:19:04.660Z,73.84
2023-05-15T06:21:34.818Z,73.84
2023-05-15T06:24:05.088Z,73.67
2023-05-15T06:26:35.044Z,73.62
2023-05-15T06:29:05.237Z,74.10
2023-05-15T06:31:35.523Z,74.75
2023-05-15T06:34:06.401Z,74.76
2023-05-15T06:36:36.195Z,73.68
2023-05-15T06:39:06.588Z,73.89
2023-05-15T06:41:36.453Z,75.11
2023-05-15T06:44:06.755Z,74.77
2023-05-15T06:46:36.687Z,75.15
2023-05-15T06:49:06.789Z,76.41
2023-05-15T06:51:36.909Z,74.70
2023-05-15T06:54:07.081Z,75.49
2023-05-15T06:56:36.969Z,74.33
2023-05-15T06:59:07.132Z,73.69
2023-05-15T07:01:38.161Z,72.05
2023-05-15T07:04:08.530Z,72.06
2023-05-15T07:06:39.032Z,71.14
2023-05-15T07:09:09.313Z,70.02
2023-05-15T07:11:40.205Z,69.21
2023-05-15T07:14:10.290Z,68.85
2023-05-15T07:16:40.137Z,66.77
2023-05-15T07:19:10.637Z,66.66
2023-05-15T07:21:40.980Z,68.06
2023-05-15T07:24:11.096Z,67.08
2023-05-15T07:26:50.144Z,66.63
2023-05-15T07:29:12.866Z,65.77
2023-05-15T07:31:44.320Z,64.73
2023-05-15T07:34:14.166Z,64.14
2023-05-15T07:36:43.981Z,62.59
2023-05-15T07:39:14.149Z,64.25
2023-05-15T07:41:44.396Z,63.47
2023-05-15T07:44:14.777Z,62.64
2023-05-15T07:46:45.786Z,63.97
2023-05-15T07:49:15.925Z,63.91
2023-05-15T07:51:45.779Z,63.91
2023-05-15T07:54:15.926Z,61.99
2023-05-15T07:56:46.072Z,61.99
2023-05-15T07:59:16.294Z,61.36
2023-05-15T08:01:46.086Z,62.87
2023-05-15T08:04:16.260Z,62.67
2023-05-15T08:06:46.124Z,62.67
2023-05-15T08:09:16.237Z,60.16
2023-05-15T08:11:46.408Z,60.16
2023-05-15T08:14:16.284Z,58.50
2023-05-15T08:16:46.122Z,58.50
2023-05-15T08:19:16.310Z,57.87
2023-05-15T08:21:46.242Z,57.87
2023-05-15T08:24:16.343Z,57.52
2023-05-15T08:26:45.854Z,57.75
2023-05-15T08:29:16.767Z,55.86
2023-05-15T08:31:46.382Z,56.09
2023-05-15T08:34:17.434Z,54.91
2023-05-15T08:36:47.259Z,54.21
2023-05-15T08:39:17.127Z,53.92
2023-05-15T08:41:55.548Z,53.54
2023-05-15T08:44:25.805Z,53.52
2023-05-15T08:46:56.537Z,53.37
2023-05-15T08:49:42.635Z,54.06
2023-05-15T08:52:12.785Z,49.43
2023-05-15T08:54:43.552Z,51.17
2023-05-15T08:57:15.378Z,51.17
2023-05-15T08:59:45.060Z,48.83
2023-05-15T09:02:15.524Z,50.79
2023-05-15T09:04:45.902Z,49.17
2023-05-15T09:07:17.471Z,50.38
2023-05-15T09:09:48.300Z,51.98
2023-05-15T09:12:20.992Z,51.93
2023-05-15T09:14:50.685Z,53.88
2023-05-15T09:17:21.070Z,53.74
2023-05-15T09:19:50.865Z,52.61
2023-05-15T09:22:23.761Z,51.55
2023-05-15T09:24:53.848Z,50.32
2023-05-15T09:27:23.677Z,51.62
2023-05-15T09:29:55.198Z,51.73
2023-05-15T09:32:28.473Z,50.62
2023-05-15T09:34:58.302Z,50.61
2023-05-15T09:37:33.686Z,50.36
2023-05-15T09:40:12.358Z,51.25
2023-05-15T09:42:42.192Z,50.72
2023-05-15T09:45:15.009Z,54.14
2023-05-15T09:47:45.297Z,53.81
2023-05-15T09:50:19.135Z,52.51
2023-05-15T09:52:49.018Z,51.49
2023-05-15T09:55:20.295Z,52.96
2023-05-15T09:58:13.726Z,52.96
2023-05-15T10:00:48.658Z,54.16
2023-05-15T10:03:17.801Z,54.16
2023-05-15T10:05:47.887Z,54.33
2023-05-15T10:08:29.586Z,54.45
2023-05-15T10:11:01.541Z,53.21
2023-05-15T10:13:34.559Z,53.11
2023-05-15T10:16:05.951Z,52.65
2023-05-15T10:18:38.723Z,53.41
2023-05-15T10:21:10.407Z,53.17
2023-05-15T10:23:43.525Z,55.07
2023-05-15T10:26:20.064Z,56.42
2023-05-15T10:28:51.112Z,56.74
2023-05-15T10:31:22.806Z,57.26
2023-05-15T10:33:55.225Z,57.15
2023-05-15T10:36:25.681Z,58.17
2023-05-15T10:38:55.882Z,58.30
2023-05-15T10:41:27.898Z,58.31
2023-05-15T10:44:01.743Z,58.89
2023-05-15T10:46:33.763Z,58.49
2023-05-15T10:49:03.717Z,57.30
2023-05-15T10:51:35.808Z,58.14
2023-05-15T10:56:52.337Z,58.14
2023-05-15T10:59:24.019Z,59.53
2023-05-15T11:01:54.353Z,60.10
2023-05-15T11:04:26.440Z,60.13
2023-05-15T11:06:59.316Z,61.38
2023-05-15T11:09:37.653Z,61.22
2023-05-15T11:12:11.726Z,60.54
2023-05-15T11:14:46.912Z,60.14
2023-05-15T11:17:17.598Z,59.73
2023-05-15T11:19:57.883Z,57.97
2023-05-15T11:22:39.967Z,58.59
2023-05-15T11:25:14.599Z,59.48
2023-05-15T11:27:46.521Z,59.45
2023-05-15T11:30:22.321Z,61.61
2023-05-15T11:32:58.350Z,61.62
2023-05-15T11:35:33.676Z,63.64
2023-05-15T11:38:06.312Z,63.65
2023-05-15T11:40:54.874Z,64.32
2023-05-15T11:43:27.191Z,63.73
2023-05-15T11:45:58.436Z,62.61
2023-05-15T11:48:35.948Z,64.08
2023-05-15T11:51:06.717Z,63.96
2023-05-15T11:53:38.689Z,65.07
2023-05-15T11:56:08.549Z,63.76
2023-05-15T11:58:40.201Z,63.76
2023-05-15T12:01:12.475Z,64.71
2023-05-15T12:03:42.435Z,65.59
2023-05-15T12:06:12.915Z,65.75
2023-05-15T12:08:42.599Z,64.87
2023-05-15T12:11:13.118Z,64.53
2023-05-15T12:13:43.127Z,67.12
2023-05-15T12:16:14.561Z,65.83
2023-05-15T12:18:44.466Z,64.26
2023-05-15T12:21:14.563Z,65.30
2023-05-15T12:24:06.215Z,64.39
2023-05-15T12:26:26.671Z,66.31
2023-05-15T12:28:57.214Z,65.74
2023-05-15T12:31:27.310Z,65.61
2023-05-15T12:33:57.993Z,66.69
2023-05-15T12:36:32.046Z,68.20
2023-05-15T12:39:08.058Z,67.55
2023-05-15T12:41:38.969Z,66.61
2023-05-15T12:44:21.258Z,66.30
2023-05-15T12:46:54.312Z,65.99
2023-05-15T12:49:24.749Z,66.62
2023-05-15T12:51:54.562Z,66.80
2023-05-15T12:54:26.199Z,66.26
2023-05-15T12:56:57.876Z,64.83
2023-05-15T12:59:27.884Z,64.58
2023-05-15T13:01:57.587Z,64.28
2023-05-15T13:04:27.786Z,63.83
2023-05-15T13:06:57.688Z,64.95
2023-05-15T13:09:27.507Z,64.42
2023-05-15T13:11:57.651Z,62.59
2023-05-15T13:14:30.740Z,60.04
2023-05-15T13:17:04.045Z,58.42
2023-05-15T13:19:34.284Z,59.00
2023-05-15T13:22:06.634Z,56.68
2023-05-15T13:24:36.447Z,56.17
2023-05-15T13:27:06.600Z,55.06
2023-05-15T13:29:36.428Z,54.80
2023-05-15T13:32:07.672Z,54.55
2023-05-15T13:34:37.471Z,53.92
2023-05-15T13:37:07.657Z,54.59
2023-05-15T13:39:37.525Z,52.96
2023-05-15T13:42:07.522Z,54.58
2023-05-15T13:44:37.626Z,52.83
2023-05-15T13:47:07.562Z,54.58
2023-05-15T13:49:37.355Z,55.26
2023-05-15T13:52:07.507Z,55.50
2023-05-15T13:54:37.329Z,56.95
2023-05-15T13:57:07.332Z,56.84
2023-05-15T13:59:37.147Z,57.35
2023-05-15T14:02:07.047Z,57.31
2023-05-15T14:04:37.612Z,59.98
2023-05-15T14:07:07.432Z,59.98
2023-05-15T14:09:37.236Z,59.88
2023-05-15T14:12:09.204Z,58.96
2023-05-15T14:14:38.999Z,56.65
2023-05-15T14:17:08.816Z,54.53
2023-05-15T14:19:38.643Z,52.68
2023-05-15T14:22:09.954Z,52.11
2023-05-15T14:24:40.060Z,55.46
2023-05-15T14:27:09.803Z,55.10
2023-05-15T14:29:41.023Z,55.90
2023-05-15T14:32:10.525Z,56.14
2023-05-15T14:34:40.333Z,56.86
2023-05-15T14:37:10.361Z,59.62
2023-05-15T14:39:40.438Z,59.22
2023-05-15T14:42:10.122Z,61.30
2023-05-15T14:44:40.361Z,61.78
2023-05-15T14:47:13.551Z,61.59
2023-05-15T14:49:43.378Z,61.78
2023-05-15T14:52:13.385Z,62.44
2023-05-15T14:54:43.776Z,62.31
2023-05-15T14:57:16.234Z,62.92
2023-05-15T14:59:46.101Z,63.66
2023-05-15T15:02:16.380Z,61.97
2023-05-15T15:04:46.186Z,62.49
2023-05-15T15:07:16.271Z,61.94
2023-05-15T15:09:45.851Z,61.70
2023-05-15T15:12:16.368Z,63.29
2023-05-15T15:14:46.247Z,61.62
2023-05-15T15:17:16.056Z,61.62
2023-05-15T15:19:45.872Z,62.05
2023-05-15T15:22:16.109Z,61.97
2023-05-15T15:24:46.262Z,61.66
2023-05-15T15:27:16.008Z,61.37
2023-05-15T15:29:46.338Z,63.68
2023-05-15T15:34:42.766Z,64.88
2023-05-15T15:37:12.574Z,65.03
2023-05-15T15:39:42.410Z,65.37
2023-05-15T15:42:12.984Z,65.54
2023-05-15T15:44:43.554Z,65.86
2023-05-15T15:47:13.377Z,67.52
2023-05-15T15:49:43.422Z,67.78
2023-05-15T15:52:13.426Z,67.84
2023-05-15T15:54:44.596Z,68.26
2023-05-15T15:57:21.827Z,67.22
2023-05-15T15:59:51.694Z,65.80
2023-05-15T16:02:21.601Z,65.90
2023-05-15T16:04:51.370Z,65.63
2023-05-15T16:07:21.273Z,65.57
2023-05-15T16:09:56.947Z,65.69
2023-05-15T16:12:22.827Z,64.78
2023-05-15T16:14:52.638Z,65.09
2023-05-15T16:17:22.473Z,66.83
2023-05-15T16:19:52.246Z,65.76
2023-05-15T16:22:23.114Z,66.56
2023-05-15T16:24:52.913Z,67.08
2023-05-15T16:27:22.712Z,66.15
2023-05-15T16:29:52.591Z,66.61
2023-05-15T16:32:22.482Z,65.26
2023-05-15T16:34:52.423Z,66.18
2023-05-15T16:37:22.235Z,66.75
2023-05-15T16:39:52.031Z,66.75
2023-05-15T16:42:21.862Z,66.07
2023-05-15T16:44:51.633Z,68.70
2023-05-15T16:47:21.513Z,68.67
2023-05-15T16:49:51.316Z,67.90
2023-05-15T16:52:20.860Z,67.33
2023-05-15T16:54:50.485Z,66.77
2023-05-15T16:57:20.330Z,66.36
2023-05-15T16:59:50.496Z,67.29
2023-05-15T17:02:20.050Z,65.48
2023-05-15T17:04:49.882Z,65.22
2023-05-15T17:07:19.661Z,66.48
2023-05-15T17:09:49.466Z,68.55
2023-05-15T17:12:19.046Z,68.93
2023-05-15T17:14:48.923Z,68.57
2023-05-15T17:17:18.908Z,68.29
2023-05-15T17:19:48.747Z,67.64
2023-05-15T17:22:18.555Z,67.86
2023-05-15T17:24:51.720Z,69.70
2023-05-15T17:27:21.739Z,69.10
2023-05-15T17:29:51.886Z,69.69
2023-05-15T17:32:21.837Z,70.39
2023-05-15T17:34:52.072Z,70.04
2023-05-15T17:37:21.814Z,70.10
2023-05-15T17:39:51.638Z,70.35
2023-05-15T17:42:21.683Z,70.24
2023-05-15T17:44:51.763Z,69.72
2023-05-15T17:47:21.696Z,69.79
2023-05-15T17:49:51.538Z,70.48
2023-05-15T17:52:21.051Z,70.61
2023-05-15T17:54:50.891Z,70.13
2023-05-15T17:57:20.681Z,70.93
2023-05-15T17:59:50.473Z,71.41
2023-05-15T18:02:20.035Z,70.82
2023-05-15T18:04:49.827Z,70.45
2023-05-15T18:07:19.649Z,71.20
2023-05-15T18:09:50.113Z,71.34
2023-05-15T18:12:19.935Z,74.19
2023-05-15T18:14:49.586Z,76.50
2023-05-15T18:17:20.045Z,77.37
2023-05-15T18:19:49.855Z,77.21
2023-05-15T18:22:20.437Z,77.21
2023-05-15T18:24:50.541Z,76.96
2023-05-15T18:27:20.262Z,77.04
2023-05-15T18:29:50.076Z,77.01
2023-05-15T18:32:19.882Z,77.45
2023-05-15T18:34:50.131Z,78.11
2023-05-15T18:37:20.082Z,78.23
2023-05-15T18:39:49.920Z,77.29
2023-05-15T18:42:19.742Z,76.22
2023-05-15T18:44:49.570Z,75.90
2023-05-15T18:47:19.992Z,76.18
2023-05-15T18:49:49.798Z,75.18
2023-05-15T18:52:21.209Z,76.93
2023-05-15T18:54:52.487Z,77.65
2023-05-15T18:57:22.562Z,76.65
2023-05-15T18:59:52.862Z,76.37
2023-05-15T19:02:24.522Z,76.28
2023-05-15T19:04:54.101Z,75.24
2023-05-15T19:07:23.949Z,75.34
2023-05-15T19:09:53.749Z,75.34
2023-05-15T19:12:23.830Z,75.18
2023-05-15T19:14:53.727Z,75.38
2023-05-15T19:17:24.261Z,75.27
2023-05-15T19:19:54.857Z,75.76
2023-05-15T19:22:24.438Z,74.82
2023-05-15T19:24:54.292Z,74.86
2023-05-15T19:27:24.098Z,73.65
2023-05-15T19:29:53.915Z,73.89
2023-05-15T19:32:23.835Z,74.08
2023-05-15T19:34:53.658Z,73.91
2023-05-15T19:37:23.762Z,73.93
2023-05-15T19:39:54.036Z,73.32
2023-05-15T19:42:23.629Z,74.08
2023-05-15T19:44:53.468Z,74.10
2023-05-15T19:47:23.389Z,74.10
2023-05-15T19:49:53.185Z,74.10
2023-05-15T19:52:23.067Z,74.62
2023-05-15T19:54:52.872Z,74.54
2023-05-15T19:57:22.984Z,74.97
2023-05-15T19:59:52.861Z,74.40
2023-05-15T20:02:22.401Z,74.39
2023-05-15T20:04:52.239Z,74.46
2023-05-15T20:07:22.021Z,74.37
2023-05-15T20:09:51.822Z,75.21
2023-05-15T20:12:21.633Z,74.57
2023-05-15T20:14:52.166Z,74.57
2023-05-15T20:17:22.034Z,74.53
2023-05-15T20:19:53.762Z,75.16
2023-05-15T20:22:23.446Z,75.56
2023-05-15T20:24:53.230Z,75.56
2023-05-15T20:27:23.322Z,75.21
2023-05-15T20:29:53.207Z,76.06
2023-05-15T20:32:22.982Z,75.69
2023-05-15T20:34:53.832Z,76.89
2023-05-15T20:37:25.864Z,75.63
2023-05-15T20:39:55.927Z,77.96
2023-05-15T20:42:27.455Z,77.96
2023-05-15T20:44:57.251Z,77.81
2023-05-15T20:47:27.094Z,77.92
2023-05-15T20:49:56.929Z,78.30
2023-05-15T20:52:26.411Z,78.30
2023-05-15T20:54:56.218Z,76.90
2023-05-15T20:57:26.063Z,75.72
2023-05-15T20:59:55.853Z,75.28
2023-05-15T21:02:25.822Z,75.72
2023-05-15T21:04:55.655Z,74.63
2023-05-15T21:07:25.428Z,75.03
2023-05-15T21:09:55.212Z,74.28
2023-05-15T21:12:24.720Z,74.15
2023-05-15T21:14:54.511Z,73.43
2023-05-15T21:17:24.025Z,73.83
2023-05-15T21:19:53.967Z,74.60
2023-05-15T21:22:23.903Z,75.23
2023-05-15T21:24:53.832Z,75.99
2023-05-15T21:27:23.629Z,76.29
2023-05-15T21:29:53.715Z,75.66
2023-05-15T21:32:23.511Z,76.25
2023-05-15T21:34:53.576Z,75.84
2023-05-15T21:37:23.675Z,74.66
2023-05-15T21:39:53.222Z,75.22
2023-05-15T21:42:23.116Z,74.41
2023-05-15T21:44:52.904Z,74.29
2023-05-15T21:47:22.785Z,73.85
2023-05-15T21:49:52.744Z,74.23
2023-05-15T21:52:22.528Z,73.99
2023-05-15T21:54:52.056Z,72.93
2023-05-15T21:57:21.853Z,73.75
2023-05-15T21:59:51.632Z,73.44
2023-05-15T22:02:22.412Z,72.37
2023-05-15T22:04:52.545Z,72.35
2023-05-15T22:07:22.615Z,72.06
2023-05-15T22:09:53.043Z,70.76
2023-05-15T22:12:22.664Z,71.17
2023-05-15T22:14:59.125Z,70.74
2023-05-15T22:17:25.571Z,70.76
2023-05-15T22:19:57.289Z,71.57
2023-05-15T22:22:26.799Z,71.57
2023-05-15T22:24:56.624Z,71.89
2023-05-15T22:27:26.841Z,71.81
2023-05-15T22:29:57.014Z,72.67
2023-05-15T22:32:26.651Z,72.67
2023-05-15T22:34:57.039Z,72.81
2023-05-15T22:37:26.948Z,71.37
2023-05-15T22:39:56.806Z,71.37
2023-05-15T22:42:28.023Z,71.43
2023-05-15T22:44:57.942Z,71.70
2023-05-15T22:47:31.043Z,71.70
2023-05-15T22:50:01.063Z,71.78
2023-05-15T22:52:30.881Z,71.41
2023-05-15T22:55:00.681Z,70.93
2023-05-15T22:57:31.086Z,70.50
2023-05-15T23:00:00.894Z,70.21
2023-05-15T23:02:30.808Z,70.18
2023-05-15T23:05:01.146Z,70.09
2023-05-15T23:07:31.015Z,69.75
2023-05-15T23:10:00.887Z,69.38
2023-05-15T23:12:30.886Z,69.81
2023-05-15T23:15:00.673Z,69.40
2023-05-15T23:17:30.913Z,69.39
2023-05-15T23:20:00.721Z,67.88
2023-05-15T23:22:30.540Z,69.15
2023-05-15T23:25:00.792Z,68.43
2023-05-15T23:27:30.797Z,68.52
2023-05-15T23:30:00.663Z,69.04
2023-05-15T23:32:30.554Z,69.26
2023-05-15T23:35:00.075Z,69.08
2023-05-15T23:37:30.135Z,69.29
2023-05-15T23:40:00.016Z,69.14
2023-05-15T23:42:31.292Z,68.75
2023-05-15T23:45:01.089Z,68.58
2023-05-15T23:47:30.963Z,68.13
2023-05-15T23:50:00.852Z,68.19
2023-05-15T23:52:30.665Z,68.84
2023-05-15T23:55:00.816Z,68.29
2023-05-15T23:57:31.273Z,68.75
